Grand Saline, TX (75140)

8:53 AM CDT on June 02, 2015 (GMT -0500)
Tara | | Change Station
CLOSE
Current Station
Personal Weather Station
Location: Wills Point, TX
Elevation: 541 ft
Nearby Weather Stations

Elev 541 ft 32.62 °N, 95.91 °W | Updated 8 minutes ago

Clear
Clear
79.2 °F
Feels Like 82 °F
N
3.2
Wind Variable Wind from ESE

Today
High -- | Low -- °F
--% Chance of Precip.
Yesterday
High -- | Low -- °F
Precip. -- in
6:15 AM 8:26 PM
Full, 100% visible
Pressure 30.08 in
Visibility 4.0 miles
Clouds Clear
Heat Index 82 °F
Dew Point 72 °F
Humidity 78%
Rainfall 0.00 in
Snow Depth Not available.
UV 3 out of 12
Pollen 5.80 out of 12
Air Quality Not available.
Flu Activity Local Activity
METAR KJDD 021335Z AUTO 14004KT 4SM BR CLR 22/21 A3008 RMK AO2

More Conditions Fewer Conditions

Pressure 30.08 in
Visibility 4.0 miles
Clouds Clear
Heat Index 82 °F
Dew Point 72 °F
Humidity 78%
Rainfall 0.00 in
Snow Depth Not available.
UV 3 out of 12
Pollen 5.80 out of 12
Air Quality Not available.
Flu Activity Local Activity
METAR KJDD 021335Z AUTO 14004KT 4SM BR CLR 22/21 A3008 RMK AO2

More Conditions Fewer Conditions

10-Day Weather Forecast

Almanac

Astronomy

Jun. 02, 2015 Rise Set
Actual Time
Civil Twilight
Nautical Twilight
Astronomical Twilight
Moon
Length of Visible Light
Length of Day
Tomorrow will be .
, % of the Moon is Illuminated

Today's Extremes

State Highs State Lows

Community

WunderPhotos

Upload Photos

1,825,914 photos uploaded!

WunderBlogs® & News

Nearby

Air Quality

  Air Quality AQ Index Pollutant
Not available.

Snow Depth

Station Depth Elevation

Earthquake Activity

City Distance Mag. Time & Date
Minimum magnitude displayed is 2.5.

Coastal Water Temperatures

Place Temperature

Stations

Nearby Weather Stations

Station Location Temp. Windchill Dew Point Humidity Wind Precip. Elev Updated Type